Time;durP1;ratioP1;P1;durP2;ratioP2;P2;SDS_P1;SDS_P2;PMS_P1;PMS_P2;Temp;Humidity;BMP_temperature;BMP_pressure;BME280_temperature;BME280_humidity;BME280_pressure;Samples;Min_cycle;Max_cycle;Signal;HPM_P1;HPM_P2
2022/01/18 00:00:15;;;;;;;7.55;4.05;;;5.40;70.50;;;;;;6126684;23;20153;-67
2022/01/18 00:02:44;;;;;;;6.35;3.80;;;5.40;70.10;;;;;;6126596;23;20269;-67
2022/01/18 00:05:14;;;;;;;6.50;4.60;;;5.40;70.50;;;;;;6126311;23;20173;-67
2022/01/18 00:07:42;;;;;;;6.25;4.25;;;5.40;69.80;;;;;;6125900;23;20612;-67
2022/01/18 00:10:12;;;;;;;8.80;5.28;;;5.40;70.10;;;;;;6126231;23;20173;-69
2022/01/18 00:13:07;;;;;;;5.75;3.88;;;5.40;70.00;;;;;;6125801;23;20201;-67
2022/01/18 00:15:43;;;;;;;9.32;4.63;;;5.40;70.00;;;;;;6126255;23;20236;-67
2022/01/18 00:18:13;;;;;;;6.15;3.90;;;5.50;69.50;;;;;;6126178;23;20159;-67
2022/01/18 00:23:28;;;;;;;8.57;3.97;;;5.50;69.90;;;;;;6126091;23;20201;-67
2022/01/18 00:25:57;;;;;;;5.53;3.80;;;5.40;70.30;;;;;;6126389;23;20169;-67
2022/01/18 00:28:30;;;;;;;4.82;3.47;;;5.50;70.70;;;;;;6125555;23;20188;-68
2022/01/18 00:33:56;;;;;;;5.15;3.90;;;5.50;70.30;;;;;;6126137;23;20172;-67
2022/01/18 00:36:28;;;;;;;5.55;3.90;;;5.40;70.60;;;;;;6125432;23;20243;-70
2022/01/18 00:39:23;;;;;;;5.85;3.80;;;5.50;70.60;;;;;;6125933;23;20161;-67
2022/01/18 00:41:50;;;;;;;5.90;3.60;;;5.50;69.90;;;;;;6125175;23;20176;-67
2022/01/18 00:44:21;;;;;;;5.38;3.58;;;5.50;69.90;;;;;;6125895;23;20204;-67
2022/01/18 00:46:51;;;;;;;6.35;3.80;;;5.50;69.50;;;;;;6125870;23;20235;-67
2022/01/18 00:49:20;;;;;;;7.05;4.32;;;5.50;69.40;;;;;;6126151;23;20180;-67
2022/01/18 00:51:54;;;;;;;5.75;3.80;;;5.50;69.50;;;;;;6125765;23;20176;-67
2022/01/18 00:54:36;;;;;;;6.50;3.83;;;5.60;69.40;;;;;;6126133;23;20228;-67
2022/01/18 00:57:03;;;;;;;5.55;3.80;;;5.60;69.50;;;;;;6125363;23;20169;-67
2022/01/18 00:59:33;;;;;;;5.55;3.30;;;5.60;69.20;;;;;;6125591;23;20717;-67
2022/01/18 01:02:05;;;;;;;5.47;3.15;;;5.70;69.60;;;;;;6125937;23;20621;-67
2022/01/18 01:04:39;;;;;;;6.07;3.35;;;5.70;69.60;;;;;;6126017;23;20569;-67
2022/01/18 01:07:09;;;;;;;4.40;3.35;;;5.70;69.40;;;;;;6125875;23;20481;-67
2022/01/18 01:09:37;;;;;;;6.32;4.38;;;5.80;69.60;;;;;;6125898;23;20196;-67
2022/01/18 01:12:10;;;;;;;6.32;3.70;;;5.80;69.00;;;;;;6124728;23;20197;-67
2022/01/18 01:14:38;;;;;;;5.85;3.80;;;5.80;68.70;;;;;;6126250;23;20461;-67
2022/01/18 01:17:25;;;;;;;6.50;4.45;;;5.80;68.50;;;;;;6125337;23;20169;-67
2022/01/18 01:41:41;;;;;;;4.82;2.50;;;5.80;70.10;;;;;;6125876;23;20191;-67
2022/01/18 01:43:09;;;;;;;5.43;3.20;;;5.90;70.10;;;;;;6087744;23;20176;-68
2022/01/18 01:45:39;;;;;;;6.15;3.60;;;5.90;70.20;;;;;;6125785;23;20243;-67
2022/01/18 01:48:08;;;;;;;5.10;3.20;;;5.80;70.60;;;;;;6125499;23;20508;-67
2022/01/18 01:50:44;;;;;;;5.38;3.35;;;5.80;70.70;;;;;;6125955;23;20197;-67
2022/01/18 01:53:14;;;;;;;5.60;3.88;;;5.80;70.60;;;;;;6125235;23;20211;-67
2022/01/18 01:55:42;;;;;;;5.55;3.78;;;5.80;71.00;;;;;;6125372;23;20165;-67
2022/01/18 01:58:09;;;;;;;6.88;3.85;;;5.70;71.60;;;;;;6125000;23;20240;-67
2022/01/18 02:00:44;;;;;;;5.97;3.40;;;5.70;71.70;;;;;;6125863;23;20225;-67
2022/01/18 02:03:13;;;;;;;5.32;3.80;;;5.70;71.80;;;;;;6124868;23;20528;-67
2022/01/18 02:05:49;;;;;;;5.38;3.80;;;5.70;72.00;;;;;;6125421;23;20188;-67
2022/01/18 02:08:18;;;;;;;5.43;3.25;;;5.70;72.40;;;;;;6125204;23;20156;-67
2022/01/18 02:10:46;;;;;;;6.90;3.55;;;5.70;72.80;;;;;;6125223;23;20168;-67
2022/01/18 02:13:14;;;;;;;5.35;3.05;;;5.60;73.40;;;;;;6124705;23;20196;-67
2022/01/18 02:16:10;;;;;;;6.38;3.88;;;5.60;73.90;;;;;;6125672;23;20192;-67
2022/01/18 02:24:12;;;;;;;5.43;3.50;;;5.60;74.90;;;;;;6125257;23;20287;-67
2022/01/18 02:26:42;;;;;;;6.03;4.10;;;5.50;75.10;;;;;;6125545;23;20220;-67
2022/01/18 02:29:11;;;;;;;5.40;3.47;;;5.50;75.50;;;;;;6125131;23;20197;-67
2022/01/18 02:31:40;;;;;;;3.70;2.70;;;5.50;75.10;;;;;;6125357;23;20200;-67
2022/01/18 02:34:11;;;;;;;6.35;3.72;;;5.50;75.50;;;;;;6125386;23;20172;-68
2022/01/18 02:36:41;;;;;;;5.50;3.92;;;5.50;75.50;;;;;;6125368;23;20232;-67
2022/01/18 02:39:10;;;;;;;4.65;3.40;;;5.50;75.80;;;;;;6125513;23;20180;-67
2022/01/18 02:41:40;;;;;;;5.80;3.60;;;5.50;74.60;;;;;;6125391;23;20165;-67
2022/01/18 02:44:10;;;;;;;7.60;4.32;;;5.50;74.20;;;;;;6125178;23;20270;-67
2022/01/18 02:46:38;;;;;;;5.97;3.90;;;5.40;74.70;;;;;;6124914;23;20207;-67
2022/01/18 02:49:06;;;;;;;8.95;3.97;;;5.40;75.20;;;;;;6125231;23;20228;-67
2022/01/18 02:51:34;;;;;;;6.00;4.38;;;5.50;75.20;;;;;;6125014;23;20188;-68
2022/01/18 02:54:05;;;;;;;7.07;3.35;;;5.50;75.40;;;;;;6124766;23;20637;-67
2022/01/18 02:56:36;;;;;;;4.50;2.85;;;5.50;75.30;;;;;;6125116;23;20165;-67
2022/01/18 02:59:12;;;;;;;5.50;3.58;;;5.60;75.10;;;;;;6124924;23;20157;-67
2022/01/18 03:04:24;;;;;;;6.88;4.50;;;5.60;74.30;;;;;;6125042;23;20201;-69
2022/01/18 03:06:52;;;;;;;7.20;4.90;;;5.60;74.60;;;;;;6126951;23;20176;-67
2022/01/18 03:09:21;;;;;;;6.20;3.95;;;5.70;74.50;;;;;;6127020;23;20304;-67
2022/01/18 03:11:48;;;;;;;6.15;4.45;;;5.60;74.50;;;;;;6126818;23;20484;-67
2022/01/18 03:14:16;;;;;;;6.10;4.20;;;5.60;74.70;;;;;;6127095;23;20470;-67
2022/01/18 03:16:43;;;;;;;6.25;4.50;;;5.60;74.90;;;;;;6127053;23;20176;-67
2022/01/18 03:19:10;;;;;;;7.22;4.63;;;5.60;75.00;;;;;;6127287;23;20180;-68
2022/01/18 03:21:38;;;;;;;10.80;4.20;;;5.60;75.10;;;;;;6126531;23;20169;-67
2022/01/18 03:24:31;;;;;;;6.43;4.10;;;5.60;75.00;;;;;;6126246;23;20502;-67
2022/01/18 03:29:45;;;;;;;9.70;5.00;;;5.70;75.20;;;;;;6126957;23;20215;-67
2022/01/18 03:32:12;;;;;;;6.05;3.78;;;5.70;75.30;;;;;;6126735;23;20175;-67
2022/01/18 03:34:41;;;;;;;8.07;4.80;;;5.70;75.40;;;;;;6126918;23;20169;-67
2022/01/18 03:37:09;;;;;;;6.45;3.63;;;5.70;75.40;;;;;;6126405;23;20169;-67
2022/01/18 03:39:36;;;;;;;4.32;3.10;;;5.70;75.40;;;;;;6126865;23;20165;-67
2022/01/18 03:42:33;;;;;;;5.68;3.45;;;5.80;75.60;;;;;;6126270;23;20173;-67
2022/01/18 03:45:03;;;;;;;4.25;2.53;;;5.80;75.50;;;;;;6126121;23;20228;-67
2022/01/18 03:47:38;;;;;;;4.93;3.15;;;5.80;75.70;;;;;;6126469;23;20172;-67
2022/01/18 03:50:11;;;;;;;5.25;3.00;;;5.80;75.60;;;;;;6126796;23;20287;-68
2022/01/18 03:52:39;;;;;;;6.82;2.90;;;5.80;75.80;;;;;;6126362;23;20192;-67
2022/01/18 03:55:08;;;;;;;7.63;3.30;;;5.80;75.80;;;;;;6126581;23;20169;-67
2022/01/18 03:57:37;;;;;;;5.57;3.55;;;5.80;75.70;;;;;;6126638;23;20165;-67
2022/01/18 04:00:13;;;;;;;5.88;4.38;;;5.80;75.60;;;;;;6126853;23;20165;-67
2022/01/18 04:02:43;;;;;;;4.07;2.95;;;5.80;75.90;;;;;;6126834;23;20245;-67
2022/01/18 04:05:11;;;;;;;6.03;3.40;;;5.80;75.80;;;;;;6126846;23;20645;-67
2022/01/18 04:07:40;;;;;;;6.88;3.22;;;5.80;75.80;;;;;;6126555;23;20201;-67
2022/01/18 04:10:09;;;;;;;5.50;3.30;;;5.80;75.90;;;;;;6126911;23;20275;-72
2022/01/18 04:12:39;;;;;;;7.10;3.25;;;5.70;76.00;;;;;;6125970;23;20272;-67
2022/01/18 04:15:24;;;;;;;4.88;3.10;;;5.60;77.10;;;;;;6126331;23;20196;-67
2022/01/18 04:26:52;;;;;;;6.28;3.65;;;5.60;78.50;;;;;;6126605;23;20192;-67
2022/01/18 04:28:53;;;;;;;4.90;3.45;;;5.60;78.30;;;;;;6126249;23;20247;-67
2022/01/18 04:31:21;;;;;;;6.53;3.92;;;5.60;78.30;;;;;;6126644;23;20176;-67
2022/01/18 04:33:49;;;;;;;7.05;5.07;;;5.60;78.10;;;;;;6126280;23;20643;-67
2022/01/18 04:36:17;;;;;;;7.45;4.60;;;5.50;78.10;;;;;;6126595;23;20173;-67
2022/01/18 04:38:47;;;;;;;5.30;3.80;;;5.50;78.30;;;;;;6126888;23;20200;-67
2022/01/18 04:41:18;;;;;;;9.23;5.90;;;5.50;78.40;;;;;;6125897;23;20558;-67
2022/01/18 04:44:05;;;;;;;9.13;5.55;;;5.50;79.00;;;;;;6126109;23;20175;-67
2022/01/18 04:49:20;;;;;;;7.43;4.57;;;5.60;79.10;;;;;;6126379;23;20231;-67
2022/01/18 04:51:48;;;;;;;7.20;4.75;;;5.60;78.60;;;;;;6126615;23;20247;-67
2022/01/18 04:54:16;;;;;;;5.63;3.90;;;5.60;78.30;;;;;;6126060;23;20179;-67
2022/01/18 04:59:29;;;;;;;6.15;4.03;;;5.70;78.40;;;;;;6126284;23;20212;-67
2022/01/18 05:01:59;;;;;;;5.32;3.35;;;5.70;78.00;;;;;;6126733;23;20193;-69
2022/01/18 05:04:27;;;;;;;10.02;4.03;;;5.60;77.90;;;;;;6126274;23;20253;-67
2022/01/18 05:06:59;;;;;;;5.63;3.60;;;5.60;78.70;;;;;;6126269;23;20165;-67
2022/01/18 05:09:26;;;;;;;5.80;3.45;;;5.50;79.30;;;;;;6126116;23;20318;-67
2022/01/18 05:12:03;;;;;;;7.18;3.78;;;5.40;79.70;;;;;;6125756;23;20708;-67
2022/01/18 05:14:35;;;;;;;4.82;3.55;;;5.40;80.30;;;;;;6125459;23;20608;-67
2022/01/18 05:17:14;;;;;;;8.68;4.35;;;5.40;79.80;;;;;;6126425;23;20153;-67
2022/01/18 05:19:59;;;;;;;6.70;4.45;;;5.40;79.80;;;;;;6125816;23;20168;-67
2022/01/18 05:25:13;;;;;;;9.95;7.72;;;5.40;80.30;;;;;;6125972;23;20164;-68
2022/01/18 05:27:41;;;;;;;11.88;7.30;;;5.50;80.10;;;;;;6125611;23;20613;-67
2022/01/18 05:30:09;;;;;;;10.52;6.38;;;5.50;79.70;;;;;;6126053;23;20193;-67
2022/01/18 05:32:41;;;;;;;12.45;8.50;;;5.50;79.30;;;;;;6125968;23;20647;-67
2022/01/18 05:35:11;;;;;;;10.23;7.40;;;5.40;79.80;;;;;;6125854;23;20157;-68
2022/01/18 05:37:44;;;;;;;13.00;7.68;;;5.40;79.90;;;;;;6126098;23;20204;-67
2022/01/18 05:40:12;;;;;;;12.93;7.82;;;5.50;80.10;;;;;;6126197;23;20240;-67
2022/01/18 05:42:39;;;;;;;12.18;7.68;;;5.50;80.20;;;;;;6125919;23;20224;-72
2022/01/18 05:45:08;;;;;;;15.95;9.02;;;5.50;80.30;;;;;;6125886;23;20247;-67
2022/01/18 05:47:38;;;;;;;10.55;5.97;;;5.50;80.30;;;;;;6125520;23;20169;-67
2022/01/18 05:50:07;;;;;;;10.70;7.22;;;5.50;80.20;;;;;;6125683;23;20198;-67
2022/01/18 05:52:34;;;;;;;9.27;5.70;;;5.50;80.60;;;;;;6125709;23;20539;-67
2022/01/18 05:55:05;;;;;;;7.20;4.40;;;5.50;80.60;;;;;;6125944;23;20176;-67
2022/01/18 05:57:38;;;;;;;6.80;5.00;;;5.40;80.40;;;;;;6126102;23;20165;-67
2022/01/18 06:00:08;;;;;;;7.55;5.05;;;5.40;80.20;;;;;;6125812;23;20158;-67
2022/01/18 06:02:44;;;;;;;8.88;4.82;;;5.40;80.50;;;;;;6125989;23;20211;-68
2022/01/18 06:07:57;;;;;;;11.23;7.03;;;5.40;80.90;;;;;;6125894;23;20160;-67
2022/01/18 06:10:25;;;;;;;9.20;6.40;;;5.40;80.50;;;;;;6125068;23;20275;-68
2022/01/18 06:12:53;;;;;;;10.45;6.78;;;5.50;80.50;;;;;;6125516;23;20197;-67
2022/01/18 06:15:23;;;;;;;10.73;6.50;;;5.50;80.30;;;;;;6125659;23;20169;-68
2022/01/18 06:17:53;;;;;;;8.50;5.70;;;5.40;80.40;;;;;;6126065;23;20157;-67
2022/01/18 06:20:20;;;;;;;8.27;6.20;;;5.40;80.30;;;;;;6126342;23;20164;-67
2022/01/18 06:22:51;;;;;;;10.00;6.15;;;5.40;80.70;;;;;;6125059;23;20256;-67
2022/01/18 06:25:19;;;;;;;11.18;7.50;;;5.40;80.80;;;;;;6125166;23;20167;-67
2022/01/18 06:27:48;;;;;;;13.23;5.90;;;5.30;80.80;;;;;;6125510;23;20165;-67
2022/01/18 06:30:19;;;;;;;9.38;6.90;;;5.30;81.20;;;;;;6125413;23;20188;-70
2022/01/18 06:32:48;;;;;;;6.30;3.85;;;5.20;82.00;;;;;;6125780;23;20157;-67
2022/01/18 06:35:23;;;;;;;8.07;5.05;;;5.20;83.20;;;;;;6125775;23;20216;-67
2022/01/18 06:37:50;;;;;;;11.00;5.93;;;5.20;82.50;;;;;;6125614;23;20152;-67
2022/01/18 06:40:17;;;;;;;8.85;5.80;;;5.10;82.90;;;;;;6126654;23;20168;-67
2022/01/18 06:42:44;;;;;;;7.72;4.97;;;5.10;83.20;;;;;;6127121;23;20624;-67
2022/01/18 06:45:12;;;;;;;8.40;5.80;;;5.10;83.40;;;;;;6126848;23;20235;-68
2022/01/18 06:47:39;;;;;;;8.55;5.00;;;5.10;83.00;;;;;;6124750;23;20169;-67
2022/01/18 06:50:10;;;;;;;8.20;6.00;;;5.20;83.00;;;;;;6126508;23;20192;-67
2022/01/18 06:52:39;;;;;;;8.23;5.38;;;5.20;82.90;;;;;;6126852;23;20620;-67
2022/01/18 06:55:08;;;;;;;7.20;6.10;;;5.20;82.80;;;;;;6126478;23;20165;-67
2022/01/18 06:57:37;;;;;;;6.97;5.07;;;5.20;82.80;;;;;;6126440;23;20165;-69
2022/01/18 07:00:06;;;;;;;8.60;5.97;;;5.20;82.90;;;;;;6126878;23;20200;-67
2022/01/18 07:02:33;;;;;;;7.80;5.85;;;5.20;82.60;;;;;;6126273;23;20248;-67
2022/01/18 07:05:00;;;;;;;8.98;5.70;;;5.20;82.50;;;;;;6127176;23;20164;-67
2022/01/18 07:07:28;;;;;;;15.45;9.15;;;5.20;82.80;;;;;;6126841;23;20169;-68
2022/01/18 07:09:58;;;;;;;18.85;12.13;;;5.10;83.00;;;;;;6126966;23;20196;-67
2022/01/18 07:12:28;;;;;;;26.42;15.98;;;5.10;83.40;;;;;;6126398;23;20522;-67
2022/01/18 07:14:55;;;;;;;18.75;12.45;;;5.10;83.50;;;;;;6126872;23;20636;-68
2022/01/18 07:17:23;;;;;;;17.55;11.70;;;5.20;83.40;;;;;;6125963;23;20176;-67
2022/01/18 07:19:50;;;;;;;10.68;7.57;;;5.20;82.90;;;;;;6126057;23;20191;-67
2022/01/18 07:22:17;;;;;;;7.25;5.75;;;5.20;83.20;;;;;;6125645;23;20169;-67
2022/01/18 07:24:45;;;;;;;7.47;5.00;;;5.20;83.20;;;;;;6126402;23;20176;-68
2022/01/18 07:27:17;;;;;;;10.10;5.80;;;5.20;83.10;;;;;;6126360;23;20179;-67
2022/01/18 07:29:45;;;;;;;9.77;4.80;;;5.20;83.00;;;;;;6126324;23;20153;-67
2022/01/18 07:32:12;;;;;;;6.82;5.45;;;5.10;83.20;;;;;;6123564;23;20609;-67
2022/01/18 07:34:41;;;;;;;10.10;4.03;;;5.10;83.40;;;;;;6125643;23;20169;-67
2022/01/18 07:37:12;;;;;;;7.40;5.63;;;5.10;83.50;;;;;;6125977;23;20256;-67
2022/01/18 07:39:39;;;;;;;8.70;5.40;;;5.20;83.80;;;;;;6126311;23;20258;-69
2022/01/18 07:42:13;;;;;;;5.93;4.40;;;5.20;83.40;;;;;;6125792;23;20169;-67
2022/01/18 07:44:40;;;;;;;9.50;5.05;;;5.20;83.30;;;;;;6126806;23;20161;-67
2022/01/18 07:47:07;;;;;;;9.77;4.88;;;5.20;83.20;;;;;;6126289;23;20541;-70
2022/01/18 07:49:34;;;;;;;8.52;5.45;;;5.20;83.30;;;;;;6125654;23;20216;-71
2022/01/18 07:52:01;;;;;;;7.15;5.10;;;5.20;83.80;;;;;;6125921;23;20196;-67
2022/01/18 07:54:29;;;;;;;8.75;5.50;;;5.20;83.90;;;;;;6125761;23;20177;-67
2022/01/18 07:56:56;;;;;;;10.07;6.45;;;5.20;83.70;;;;;;6125414;23;20177;-68
2022/01/18 07:59:27;;;;;;;6.55;5.03;;;5.20;83.70;;;;;;6124032;23;20224;-68
2022/01/18 08:01:54;;;;;;;6.60;5.00;;;5.20;84.20;;;;;;6124801;23;20192;-68
2022/01/18 08:04:30;;;;;;;7.68;5.40;;;5.20;85.20;;;;;;6122605;23;20173;-67
2022/01/18 08:06:57;;;;;;;8.95;5.85;;;5.10;85.10;;;;;;6124237;23;20153;-68
2022/01/18 08:09:24;;;;;;;9.50;5.80;;;5.10;85.10;;;;;;6125181;23;20260;-68
2022/01/18 08:11:52;;;;;;;6.20;4.75;;;5.20;85.40;;;;;;6125682;23;20204;-67
2022/01/18 08:14:21;;;;;;;11.02;5.00;;;5.30;85.20;;;;;;6126349;23;20600;-68
2022/01/18 08:17:00;;;;;;;6.80;4.90;;;5.40;84.70;;;;;;6126302;23;20169;-67
2022/01/18 08:19:30;;;;;;;7.68;5.03;;;5.40;84.50;;;;;;6126136;23;20159;-67
2022/01/18 08:21:59;;;;;;;9.43;6.43;;;5.50;84.10;;;;;;6126526;23;20447;-67
2022/01/18 08:24:27;;;;;;;9.00;6.05;;;5.50;83.90;;;;;;6123469;23;20203;-68
2022/01/18 08:26:58;;;;;;;7.97;5.80;;;5.60;84.00;;;;;;6125979;23;20172;-67
2022/01/18 08:29:28;;;;;;;7.97;6.22;;;5.60;83.60;;;;;;6126563;23;20244;-67
2022/01/18 08:31:58;;;;;;;9.25;5.75;;;5.60;83.40;;;;;;6125792;23;20555;-68
2022/01/18 08:34:26;;;;;;;7.60;5.15;;;5.60;83.60;;;;;;6126715;23;20175;-67
2022/01/18 08:36:53;;;;;;;8.07;5.60;;;5.70;83.60;;;;;;6126350;23;20184;-67
2022/01/18 08:39:21;;;;;;;9.00;6.28;;;5.70;83.30;;;;;;6126332;23;20713;-67
2022/01/18 08:41:48;;;;;;;12.13;6.72;;;5.80;82.80;;;;;;6126177;23;20287;-67
2022/01/18 08:44:15;;;;;;;8.60;6.70;;;5.80;82.50;;;;;;6126354;23;20173;-69
2022/01/18 08:46:42;;;;;;;8.43;6.18;;;5.80;82.40;;;;;;6126593;23;20251;-67
2022/01/18 08:49:11;;;;;;;7.40;5.28;;;5.90;82.60;;;;;;6126579;23;20165;-67
2022/01/18 08:51:38;;;;;;;8.60;6.32;;;5.90;82.20;;;;;;6126041;23;20280;-67
2022/01/18 08:54:06;;;;;;;10.68;5.95;;;5.90;82.30;;;;;;6126641;23;20228;-67
2022/01/18 08:56:33;;;;;;;7.85;6.10;;;6.00;82.20;;;;;;6125822;23;20169;-68
2022/01/18 08:59:01;;;;;;;8.93;6.50;;;6.00;81.70;;;;;;6126205;23;20173;-67
2022/01/18 09:01:28;;;;;;;7.75;5.72;;;6.00;81.10;;;;;;6126138;23;20492;-67
2022/01/18 09:03:55;;;;;;;7.07;5.28;;;6.00;80.70;;;;;;6125832;23;20481;-68
2022/01/18 09:06:25;;;;;;;8.32;5.40;;;6.00;80.50;;;;;;6125959;23;20517;-67
2022/01/18 09:08:56;;;;;;;7.05;5.63;;;6.00;80.80;;;;;;6125826;23;20247;-68
2022/01/18 09:11:26;;;;;;;9.07;6.50;;;6.10;81.10;;;;;;6126343;23;20188;-67
2022/01/18 09:13:54;;;;;;;9.82;6.10;;;6.20;80.90;;;;;;6125615;23;20243;-67
2022/01/18 09:16:21;;;;;;;10.07;6.85;;;6.20;80.30;;;;;;6126585;23;20541;-67
2022/01/18 09:18:51;;;;;;;10.60;6.72;;;6.30;80.00;;;;;;6126542;23;20220;-67
2022/01/18 09:21:18;;;;;;;9.88;6.85;;;6.30;79.40;;;;;;6126091;23;20172;-67
2022/01/18 09:23:47;;;;;;;11.38;6.20;;;6.20;79.00;;;;;;6125915;23;20173;-67
2022/01/18 09:26:14;;;;;;;12.93;7.10;;;6.30;78.60;;;;;;6125596;23;20165;-67
2022/01/18 09:28:42;;;;;;;8.48;6.28;;;6.30;78.30;;;;;;6123299;23;20227;-68
2022/01/18 09:31:10;;;;;;;9.75;6.25;;;6.30;77.30;;;;;;6125152;23;20192;-67
2022/01/18 09:33:37;;;;;;;9.77;6.35;;;6.30;76.80;;;;;;6125622;23;20165;-67
2022/01/18 09:36:08;;;;;;;9.25;5.32;;;6.30;77.50;;;;;;6125130;23;20168;-67
2022/01/18 09:38:35;;;;;;;11.23;5.75;;;6.50;77.50;;;;;;6125156;23;20597;-68
2022/01/18 09:41:10;;;;;;;7.43;5.93;;;6.60;77.30;;;;;;6125646;23;20169;-68
2022/01/18 09:43:39;;;;;;;9.38;6.40;;;6.80;77.40;;;;;;6125108;23;20160;-67
2022/01/18 09:46:06;;;;;;;12.45;6.85;;;6.90;76.60;;;;;;6124935;23;20647;-67
2022/01/18 09:48:34;;;;;;;11.57;7.75;;;6.90;76.30;;;;;;6125310;23;20169;-67
2022/01/18 09:51:02;;;;;;;13.93;7.43;;;7.10;76.50;;;;;;6125335;23;20196;-67
2022/01/18 09:53:29;;;;;;;13.35;7.53;;;7.10;76.30;;;;;;6125176;23;20169;-68
2022/01/18 09:55:56;;;;;;;11.00;6.80;;;7.30;76.70;;;;;;6125354;23;20613;-71
2022/01/18 09:58:25;;;;;;;14.00;8.38;;;7.50;76.70;;;;;;6125017;23;20621;-68
2022/01/18 10:00:52;;;;;;;9.57;7.13;;;7.60;76.20;;;;;;6125297;23;20176;-67
2022/01/18 10:03:26;;;;;;;11.50;6.50;;;7.70;74.30;;;;;;6125479;23;20173;-67
2022/01/18 10:05:53;;;;;;;9.60;5.47;;;7.80;74.20;;;;;;6125050;23;20164;-67
2022/01/18 10:08:21;;;;;;;8.55;5.45;;;7.90;73.00;;;;;;6125395;23;20503;-67
2022/01/18 10:10:50;;;;;;;9.10;5.60;;;8.00;71.20;;;;;;6125195;23;20189;-67
2022/01/18 10:13:20;;;;;;;10.10;6.35;;;8.10;69.70;;;;;;6125025;23;20192;-68
2022/01/18 10:16:07;;;;;;;11.02;6.15;;;8.20;68.70;;;;;;6124569;23;20247;-67
2022/01/18 10:18:44;;;;;;;8.10;6.10;;;8.30;68.50;;;;;;6125179;23;20157;-67
2022/01/18 10:21:11;;;;;;;8.85;4.72;;;8.40;67.60;;;;;;6122696;23;20219;-67
2022/01/18 10:23:39;;;;;;;6.72;4.82;;;8.50;65.50;;;;;;6124463;23;20255;-68
2022/01/18 10:26:18;;;;;;;8.18;5.30;;;8.60;64.80;;;;;;6125047;23;20240;-68
2022/01/18 10:28:49;;;;;;;7.25;5.90;;;8.70;64.80;;;;;;6125113;23;20636;-68
2022/01/18 10:31:34;;;;;;;7.45;4.72;;;8.80;63.40;;;;;;6125034;23;20636;-68
2022/01/18 10:34:28;;;;;;;7.95;4.85;;;8.80;62.80;;;;;;6125520;23;20245;-68
2022/01/18 10:37:02;;;;;;;8.75;5.35;;;8.90;63.20;;;;;;6118977;23;20173;-67
2022/01/18 10:39:34;;;;;;;10.27;5.28;;;9.00;62.80;;;;;;6125503;23;20476;-68
2022/01/18 10:42:14;;;;;;;12.23;7.45;;;9.00;61.70;;;;;;6124788;23;20157;-68
2022/01/18 10:44:41;;;;;;;11.15;7.70;;;9.10;62.80;;;;;;6124698;23;20157;-67
2022/01/18 10:47:14;;;;;;;7.20;4.93;;;9.60;60.70;;;;;;6124982;23;20166;-68
2022/01/18 10:49:46;;;;;;;7.40;5.10;;;10.20;58.80;;;;;;6124426;23;20157;-67
2022/01/18 10:52:17;;;;;;;7.60;5.18;;;11.00;57.50;;;;;;6125310;23;20536;-68
2022/01/18 10:54:49;;;;;;;6.43;4.25;;;11.60;55.60;;;;;;6124736;23;20488;-69
2022/01/18 10:57:20;;;;;;;11.07;5.22;;;12.20;53.40;;;;;;6125057;23;20192;-68
2022/01/18 10:59:48;;;;;;;8.80;4.68;;;12.40;51.10;;;;;;6124342;23;20145;-68
2022/01/18 11:02:19;;;;;;;8.45;4.72;;;12.30;50.30;;;;;;6124792;23;20191;-68
2022/01/18 11:04:49;;;;;;;7.82;4.60;;;12.00;50.10;;;;;;6124735;23;20196;-67
2022/01/18 11:07:18;;;;;;;10.82;6.63;;;11.60;50.20;;;;;;6124679;23;20169;-68
2022/01/18 11:09:49;;;;;;;9.95;5.95;;;11.20;50.20;;;;;;6125171;23;20267;-68
2022/01/18 11:12:18;;;;;;;8.73;4.65;;;10.80;51.50;;;;;;6123987;23;20201;-67
2022/01/18 11:14:48;;;;;;;8.70;4.38;;;10.40;51.00;;;;;;6125320;23;20176;-67
2022/01/18 11:17:25;;;;;;;7.85;5.05;;;10.10;51.80;;;;;;6123620;23;20169;-69
2022/01/18 11:19:56;;;;;;;6.32;4.63;;;9.70;53.50;;;;;;6124948;23;20216;-67
2022/01/18 11:22:30;;;;;;;7.28;4.65;;;9.50;54.70;;;;;;6125430;23;20244;-67
2022/01/18 11:25:00;;;;;;;6.65;4.72;;;9.30;55.10;;;;;;6124766;23;20161;-67
2022/01/18 11:27:29;;;;;;;6.95;4.50;;;9.10;55.80;;;;;;6126073;23;20176;-67
2022/01/18 11:29:58;;;;;;;6.13;4.40;;;9.00;56.10;;;;;;6126310;23;20169;-69
2022/01/18 11:32:29;;;;;;;7.45;4.40;;;8.80;56.60;;;;;;6126600;23;20193;-67
2022/01/18 11:35:10;;;;;;;6.03;4.20;;;8.60;56.30;;;;;;6127095;23;20236;-68
2022/01/18 11:37:45;;;;;;;4.45;2.88;;;8.40;56.60;;;;;;6126818;23;20196;-67
2022/01/18 11:40:15;;;;;;;6.80;4.60;;;8.20;57.20;;;;;;6127062;23;20208;-67
2022/01/18 11:42:49;;;;;;;6.90;3.90;;;8.00;57.50;;;;;;6126053;23;20176;-68
2022/01/18 11:45:34;;;;;;;6.20;4.55;;;7.80;58.10;;;;;;6126361;23;20159;-67
2022/01/18 11:48:07;;;;;;;7.57;4.43;;;7.80;58.70;;;;;;6125325;23;20541;-67
2022/01/18 11:50:37;;;;;;;19.58;4.50;;;7.70;59.00;;;;;;6126240;23;20157;-67
2022/01/18 11:53:24;;;;;;;6.25;4.40;;;7.70;58.80;;;;;;6125485;23;20195;-68
2022/01/18 11:55:59;;;;;;;6.10;2.92;;;7.70;59.50;;;;;;6119370;23;20157;-69
2022/01/18 11:58:38;;;;;;;5.30;3.53;;;7.80;59.60;;;;;;6125613;23;20168;-67
2022/01/18 12:01:12;;;;;;;5.93;3.70;;;7.90;59.30;;;;;;6125667;23;20176;-67
2022/01/18 12:03:49;;;;;;;4.43;3.15;;;7.90;58.30;;;;;;6125863;23;20483;-67
2022/01/18 12:06:17;;;;;;;4.30;2.45;;;7.90;57.90;;;;;;6125708;23;20178;-67
2022/01/18 12:08:46;;;;;;;5.38;2.38;;;8.00;57.80;;;;;;6126621;23;20192;-67
2022/01/18 12:11:36;;;;;;;5.65;3.53;;;8.10;58.20;;;;;;6124946;23;20160;-71
2022/01/18 12:14:04;;;;;;;4.47;3.35;;;8.40;58.80;;;;;;6125502;23;20180;-67
2022/01/18 12:16:31;;;;;;;4.43;2.83;;;8.60;58.60;;;;;;6125756;23;20167;-67
2022/01/18 12:19:04;;;;;;;5.65;3.20;;;8.70;58.20;;;;;;6125617;23;20462;-68
2022/01/18 12:21:33;;;;;;;7.97;3.70;;;8.80;57.20;;;;;;6125789;23;20193;-67
2022/01/18 12:24:15;;;;;;;6.70;3.83;;;8.70;56.50;;;;;;6125462;23;20520;-67
2022/01/18 12:26:47;;;;;;;5.38;3.38;;;8.80;57.00;;;;;;6125039;23;20177;-67
2022/01/18 12:29:35;;;;;;;5.38;3.40;;;8.80;56.60;;;;;;6125636;23;20157;-67
2022/01/18 12:34:52;;;;;;;8.32;4.15;;;8.90;56.60;;;;;;6125486;23;20176;-69
2022/01/18 12:37:56;;;;;;;5.25;3.13;;;8.90;56.00;;;;;;6125348;23;20164;-67
2022/01/18 12:40:26;;;;;;;6.00;3.10;;;8.80;55.90;;;;;;6126222;23;20154;-68
2022/01/18 12:45:50;;;;;;;3.63;2.40;;;9.00;55.50;;;;;;6125080;23;20209;-68
2022/01/18 12:48:28;;;;;;;4.53;2.85;;;8.90;55.20;;;;;;6123979;23;20165;-67
2022/01/18 12:50:59;;;;;;;5.57;2.72;;;8.90;54.60;;;;;;6125887;23;20220;-68
2022/01/18 12:53:29;;;;;;;4.22;2.97;;;8.80;54.20;;;;;;6126256;23;20184;-67
2022/01/18 12:56:00;;;;;;;4.18;2.22;;;8.70;55.50;;;;;;6124725;23;20184;-67
2022/01/18 12:58:30;;;;;;;7.00;2.35;;;8.60;55.30;;;;;;6124472;23;20207;-67
2022/01/18 13:00:59;;;;;;;3.65;2.25;;;8.60;55.10;;;;;;6125331;23;20157;-70
2022/01/18 13:03:30;;;;;;;5.55;2.97;;;8.60;55.10;;;;;;6120585;23;20489;-69
2022/01/18 13:06:17;;;;;;;7.07;3.00;;;8.50;55.00;;;;;;6123958;23;20157;-68
2022/01/18 13:08:47;;;;;;;4.35;2.67;;;8.30;55.90;;;;;;6125038;23;20501;-69
2022/01/18 13:11:16;;;;;;;5.38;2.30;;;8.30;56.30;;;;;;6125050;23;20177;-67
2022/01/18 13:13:50;;;;;;;3.47;2.22;;;8.30;55.90;;;;;;6125440;23;20280;-67
2022/01/18 13:27:46;;;;;;;6.63;3.72;;;8.10;56.50;;;;;;6102620;23;20165;-68
2022/01/18 13:30:22;;;;;;;9.07;4.80;;;8.10;56.40;;;;;;6124778;23;20157;-67
2022/01/18 13:32:51;;;;;;;9.10;3.85;;;8.10;57.00;;;;;;6124982;23;20200;-67
2022/01/18 13:35:24;;;;;;;3.72;2.95;;;8.10;56.70;;;;;;6125105;23;20172;-67
2022/01/18 13:38:03;;;;;;;3.83;2.42;;;8.10;56.80;;;;;;6125286;23;20644;-67
2022/01/18 13:40:35;;;;;;;3.25;2.50;;;8.10;56.30;;;;;;6124977;23;20157;-67
2022/01/18 13:43:06;;;;;;;4.88;2.80;;;8.00;56.40;;;;;;6125712;23;20164;-67
2022/01/18 13:45:42;;;;;;;5.55;2.58;;;8.00;56.40;;;;;;6124858;23;20613;-69
2022/01/18 13:48:14;;;;;;;3.92;2.45;;;7.90;56.30;;;;;;6125560;23;20195;-67
2022/01/18 13:50:53;;;;;;;4.60;2.75;;;7.90;56.50;;;;;;6125276;23;20211;-68
2022/01/18 13:53:27;;;;;;;3.33;2.38;;;7.80;56.60;;;;;;6125075;23;20495;-67
2022/01/18 13:56:03;;;;;;;6.53;2.13;;;7.70;56.60;;;;;;6125042;23;20255;-67
2022/01/18 13:58:33;;;;;;;5.47;1.92;;;7.70;56.00;;;;;;6125039;23;20157;-67
2022/01/18 14:01:13;;;;;;;8.68;3.10;;;7.60;56.00;;;;;;6125167;23;20177;-67
2022/01/18 14:03:42;;;;;;;6.35;3.22;;;7.50;56.30;;;;;;6124400;23;20654;-67
2022/01/18 14:06:15;;;;;;;4.72;2.72;;;7.50;56.60;;;;;;6125048;23;20462;-67
2022/01/18 14:08:46;;;;;;;5.68;3.15;;;7.50;56.80;;;;;;6125304;23;20212;-68
2022/01/18 14:11:17;;;;;;;3.85;2.70;;;7.50;56.80;;;;;;6124837;23;20521;-67
2022/01/18 14:13:45;;;;;;;4.30;2.38;;;7.50;56.70;;;;;;6124493;23;20217;-67
2022/01/18 14:16:24;;;;;;;2.70;1.80;;;7.50;56.60;;;;;;6124600;23;20204;-68
2022/01/18 14:18:57;;;;;;;4.90;2.20;;;7.50;56.30;;;;;;6125189;23;20171;-67
2022/01/18 14:21:28;;;;;;;3.05;1.92;;;7.50;55.70;;;;;;6124875;23;20157;-68
2022/01/18 14:24:14;;;;;;;3.25;1.75;;;7.40;55.50;;;;;;6124694;23;20248;-67
2022/01/18 14:27:07;;;;;;;3.75;1.70;;;7.30;55.50;;;;;;6124664;23;20161;-67
2022/01/18 14:29:55;;;;;;;3.75;2.10;;;7.20;56.10;;;;;;6124381;23;20173;-67